This is the latest recevied weather packets stored in our database for station/object W7TRD. If no packets are shown the sender has not sent any weather packets the latest 10 day(s).
| Time | Temp. | Humidity | Pressure | Rain* | Wind** | Luminosity | Snow |
|---|---|---|---|---|---|---|---|
| 1777935227 | 23.33° C | 56% | 1012 hPa | 0 mm | - | 556 W/m² | - |
| 1777934924 | 24.44° C | 55% | 1012.1 hPa | 0 mm | - | 555 W/m² | - |
| 1777934621 | 23.89° C | 55% | 1011.9 hPa | 0 mm | - | 554 W/m² | - |
| 1777934318 | 23.89° C | 56% | 1012.2 hPa | 0 mm | - | 581 W/m² | - |
| 1777934013 | 23.33° C | 56% | 1012.3 hPa | 0 mm | - | 591 W/m² | - |
| 1777933710 | 23.33° C | 57% | 1012.2 hPa | 0 mm | - | 602 W/m² | - |
| 1777933407 | 23.89° C | 56% | 1012.4 hPa | 0 mm | - | 606 W/m² | - |
| 1777933106 | 23.33° C | 58% | 1012.4 hPa | 0 mm | - | 612 W/m² | - |
| 1777932802 | 23.33° C | 55% | 1012.6 hPa | 0 mm | - | 627 W/m² | - |
| 1777932499 | 22.22° C | 59% | 1012.4 hPa | 0 mm | - | 634 W/m² | - |
| 1777932195 | 22.78° C | 60% | 1012.6 hPa | 0 mm | - | 647 W/m² | - |
| 1777931893 | 22.78° C | 56% | 1012.7 hPa | 0 mm | - | 648 W/m² | - |
| 1777931589 | 21.67° C | 58% | 1012.6 hPa | 0 mm | - | 656 W/m² | - |
| 1777931285 | 22.22° C | 59% | 1012.6 hPa | 0 mm | - | 662 W/m² | - |
| 1777930982 | 22.22° C | 60% | 1012.8 hPa | 0 mm | - | 681 W/m² | - |
| 1777930679 | 22.22° C | 57% | 1012.8 hPa | 0 mm | - | 652 W/m² | - |
| 1777930375 | 22.22° C | 59% | 1012.9 hPa | 0 mm | - | 673 W/m² | - |
| 1777930072 | 22.78° C | 57% | 1012.8 hPa | 0 mm | - | 692 W/m² | - |
| 1777929768 | 21.67° C | 60% | 1012.9 hPa | 0 mm | - | 699 W/m² | - |
| 1777929466 | 21.67° C | 60% | 1013 hPa | 0 mm | - | 708 W/m² | - |
| 1777929162 | 21.67° C | 59% | 1013.2 hPa | 0 mm | - | 706 W/m² | - |
| 1777928860 | 21.11° C | 61% | 1013.2 hPa | 0 mm | - | 710 W/m² | - |
| 1777928557 | 21.11° C | 62% | 1013.5 hPa | 0 mm | - | 707 W/m² | - |
| 1777928253 | 21.67° C | 60% | 1013.3 hPa | 0 mm | - | 707 W/m² | - |
| 1777927951 | 21.67° C | 59% | 1013.4 hPa | 0 mm | - | 661 W/m² | - |
* Rain latest hour (hover to see other rain measurements)
** Current wind speed in m/s (hover to see current wind gust speed)